Time,TemperatureF,DewpointF,PressureIn,WindDirection,WindDirectionDegrees,WindSpeedMPH,WindSpeedGustMPH,Humidity,HourlyPrecipIn,Conditions,Clouds,dailyrainin,SoftwareType,DateUTC
2016-07-23 00:02:00,77.2,61.0,30.03,South,180,0.0,0.0,57,0.00,,,0.00,WUHU216WMR100,2016-07-23 05:02:00,
2016-07-23 00:07:00,77.2,60.5,30.03,South,180,0.0,0.0,56,0.00,,,0.00,WUHU216WMR100,2016-07-23 05:07:00,
2016-07-23 00:12:00,77.2,61.0,30.03,SSW,202,0.0,0.0,57,0.00,,,0.00,WUHU216WMR100,2016-07-23 05:12:00,
2016-07-23 00:17:00,77.2,61.0,30.03,SSW,202,0.0,0.0,57,0.00,,,0.00,WUHU216WMR100,2016-07-23 05:17:00,
2016-07-23 00:22:00,77.2,61.0,30.03,SSW,202,0.0,0.0,57,0.00,,,0.00,WUHU216WMR100,2016-07-23 05:22:00,
2016-07-23 00:27:00,77.0,60.3,30.03,SW,225,0.0,0.0,56,0.00,,,0.00,WUHU216WMR100,2016-07-23 05:27:00,
2016-07-23 00:32:00,77.0,60.3,30.03,SW,225,0.0,0.0,56,0.00,,,0.00,WUHU216WMR100,2016-07-23 05:32:00,
2016-07-23 00:37:00,77.0,60.3,30.03,SSW,202,0.0,0.0,56,0.00,,,0.00,WUHU216WMR100,2016-07-23 05:37:00,
2016-07-23 00:42:00,77.0,60.8,30.03,SSW,202,0.0,0.0,57,0.00,,,0.00,WUHU216WMR100,2016-07-23 05:42:00,
2016-07-23 00:47:00,77.0,60.8,30.03,SSW,202,0.0,0.0,57,0.00,,,0.00,WUHU216WMR100,2016-07-23 05:47:00,
2016-07-23 00:52:00,77.0,60.8,30.03,SSW,202,0.0,0.0,57,0.00,,,0.00,WUHU216WMR100,2016-07-23 05:52:00,
2016-07-23 00:57:00,77.2,61.5,30.03,SW,225,0.0,0.0,58,0.00,,,0.00,WUHU216WMR100,2016-07-23 05:57:00,
2016-07-23 01:02:00,77.2,61.5,30.03,SW,225,0.0,0.0,58,0.00,,,0.00,WUHU216WMR100,2016-07-23 06:02:00,
2016-07-23 01:07:00,77.2,61.5,30.03,SW,225,0.0,0.0,58,0.00,,,0.00,WUHU216WMR100,2016-07-23 06:07:00,
2016-07-23 01:12:00,77.2,61.5,30.03,SW,225,0.0,0.0,58,0.00,,,0.00,WUHU216WMR100,2016-07-23 06:12:00,
2016-07-23 01:17:00,77.2,61.5,30.03,SW,225,0.0,0.0,58,0.00,,,0.00,WUHU216WMR100,2016-07-23 06:17:00,
2016-07-23 01:22:00,77.2,61.5,30.03,SW,225,0.0,0.0,58,0.00,,,0.00,WUHU216WMR100,2016-07-23 06:22:00,
2016-07-23 01:27:00,77.0,61.3,30.03,SW,225,0.0,0.0,58,0.00,,,0.00,WUHU216WMR100,2016-07-23 06:27:00,
2016-07-23 01:32:00,77.0,61.3,30.00,SW,225,0.0,0.0,58,0.00,,,0.00,WUHU216WMR100,2016-07-23 06:32:00,
2016-07-23 01:37:00,76.8,61.1,30.00,SW,225,0.0,0.0,58,0.00,,,0.00,WUHU216WMR100,2016-07-23 06:37:00,
2016-07-23 01:42:00,76.8,61.1,30.00,SW,225,0.0,0.0,58,0.00,,,0.00,WUHU216WMR100,2016-07-23 06:42:00,
2016-07-23 01:47:00,76.6,61.4,30.00,SW,225,0.0,0.0,59,0.00,,,0.00,WUHU216WMR100,2016-07-23 06:47:00,
2016-07-23 01:52:00,76.5,61.3,30.00,SW,225,0.0,0.0,59,0.00,,,0.00,WUHU216WMR100,2016-07-23 06:52:00,
2016-07-23 01:57:00,76.3,61.1,30.00,SW,225,0.0,0.0,59,0.00,,,0.00,WUHU216WMR100,2016-07-23 06:57:00,
2016-07-23 02:02:00,76.3,61.1,30.00,SW,225,0.0,0.0,59,0.00,,,0.00,WUHU216WMR100,2016-07-23 07:02:00,
2016-07-23 02:07:00,76.1,61.4,30.00,SW,225,0.0,0.0,60,0.00,,,0.00,WUHU216WMR100,2016-07-23 07:07:00,
2016-07-23 02:12:00,76.1,61.4,30.00,SW,225,0.0,0.0,60,0.00,,,0.00,WUHU216WMR100,2016-07-23 07:12:00,
2016-07-23 02:17:00,76.1,61.4,30.00,SW,225,0.0,0.0,60,0.00,,,0.00,WUHU216WMR100,2016-07-23 07:17:00,
2016-07-23 02:22:00,76.1,61.9,30.00,SW,225,0.0,0.0,61,0.00,,,0.00,WUHU216WMR100,2016-07-23 07:22:00,
2016-07-23 02:27:00,76.1,61.9,30.00,SW,225,0.0,0.0,61,0.00,,,0.00,WUHU216WMR100,2016-07-23 07:27:00,
2016-07-23 02:32:00,76.1,62.4,30.00,SW,225,0.0,0.0,62,0.00,,,0.00,WUHU216WMR100,2016-07-23 07:32:00,
2016-07-23 02:37:00,75.9,62.2,30.00,SW,225,0.0,0.0,62,0.00,,,0.00,WUHU216WMR100,2016-07-23 07:37:00,
2016-07-23 02:42:00,75.9,62.2,30.00,SW,225,0.0,0.0,62,0.00,,,0.00,WUHU216WMR100,2016-07-23 07:42:00,
2016-07-23 02:47:00,75.7,62.4,30.00,SW,225,0.0,0.0,63,0.00,,,0.00,WUHU216WMR100,2016-07-23 07:47:00,
2016-07-23 02:52:00,75.7,62.4,30.00,SW,225,0.0,0.0,63,0.00,,,0.00,WUHU216WMR100,2016-07-23 07:52:00,
2016-07-23 02:57:00,75.6,62.8,30.00,SW,225,0.0,0.0,64,0.00,,,0.00,WUHU216WMR100,2016-07-23 07:57:00,
2016-07-23 03:02:00,75.6,62.8,30.00,SW,225,0.0,0.0,64,0.00,,,0.00,WUHU216WMR100,2016-07-23 08:02:00,
2016-07-23 03:07:00,75.4,62.6,30.00,SW,225,0.0,0.0,64,0.00,,,0.00,WUHU216WMR100,2016-07-23 08:07:00,
2016-07-23 03:12:00,75.2,62.8,30.00,SW,225,0.0,0.0,65,0.00,,,0.00,WUHU216WMR100,2016-07-23 08:12:00,
2016-07-23 03:17:00,75.2,62.8,30.00,SW,225,0.0,0.0,65,0.00,,,0.00,WUHU216WMR100,2016-07-23 08:17:00,
2016-07-23 03:22:00,75.0,62.7,30.00,SW,225,0.0,0.0,65,0.00,,,0.00,WUHU216WMR100,2016-07-23 08:22:00,
2016-07-23 03:27:00,75.0,62.7,30.00,SW,225,0.0,0.0,65,0.00,,,0.00,WUHU216WMR100,2016-07-23 08:27:00,
2016-07-23 03:32:00,74.8,62.5,30.00,SW,225,0.0,0.0,65,0.00,,,0.00,WUHU216WMR100,2016-07-23 08:32:00,
2016-07-23 03:37:00,74.8,62.9,30.00,SW,225,0.0,0.0,66,0.00,,,0.00,WUHU216WMR100,2016-07-23 08:37:00,
2016-07-23 03:42:00,74.7,62.8,30.00,SW,225,0.0,0.0,66,0.00,,,0.00,WUHU216WMR100,2016-07-23 08:42:00,
2016-07-23 03:47:00,74.5,62.6,30.00,SW,225,0.0,0.0,66,0.00,,,0.00,WUHU216WMR100,2016-07-23 08:47:00,
2016-07-23 03:52:00,74.5,63.0,30.00,SW,225,0.0,0.0,67,0.00,,,0.00,WUHU216WMR100,2016-07-23 08:52:00,
2016-07-23 03:57:00,74.5,63.5,30.00,SW,225,0.0,0.0,68,0.00,,,0.00,WUHU216WMR100,2016-07-23 08:57:00,
2016-07-23 04:03:00,74.3,63.3,30.00,SW,225,0.0,0.0,68,0.00,,,0.00,WUHU216WMR100,2016-07-23 09:03:00,
2016-07-23 04:08:00,74.3,63.3,30.00,SW,225,0.0,0.0,68,0.00,,,0.00,WUHU216WMR100,2016-07-23 09:08:00,
2016-07-23 04:13:00,74.3,63.7,30.00,SW,225,0.0,0.0,69,0.00,,,0.00,WUHU216WMR100,2016-07-23 09:13:00,
2016-07-23 04:18:00,74.5,64.7,30.00,SW,225,0.0,0.0,71,0.00,,,0.00,WUHU216WMR100,2016-07-23 09:18:00,
2016-07-23 04:23:00,74.8,65.4,30.00,SW,225,0.0,0.0,72,0.00,,,0.00,WUHU216WMR100,2016-07-23 09:23:00,
2016-07-23 04:28:00,74.8,65.7,30.00,SW,225,0.0,0.0,73,0.00,,,0.00,WUHU216WMR100,2016-07-23 09:28:00,
2016-07-23 04:33:00,75.0,65.9,30.00,SW,225,0.0,0.0,73,0.00,,,0.00,WUHU216WMR100,2016-07-23 09:33:00,
2016-07-23 04:38:00,75.0,65.5,30.00,SW,225,0.0,0.0,72,0.00,,,0.00,WUHU216WMR100,2016-07-23 09:38:00,
2016-07-23 04:43:00,75.0,65.5,30.00,SW,225,0.0,0.0,72,0.00,,,0.00,WUHU216WMR100,2016-07-23 09:43:00,
2016-07-23 04:48:00,75.0,65.5,29.97,SW,225,0.0,0.0,72,0.00,,,0.00,WUHU216WMR100,2016-07-23 09:48:00,
2016-07-23 04:53:00,75.0,65.5,29.97,SW,225,0.0,0.0,72,0.00,,,0.00,WUHU216WMR100,2016-07-23 09:53:00,
2016-07-23 04:58:00,75.0,65.2,29.97,SW,225,0.0,0.0,71,0.00,,,0.00,WUHU216WMR100,2016-07-23 09:58:00,
2016-07-23 05:03:00,75.0,65.5,29.97,SW,225,0.0,0.0,72,0.00,,,0.00,WUHU216WMR100,2016-07-23 10:03:00,
2016-07-23 05:08:00,74.8,65.0,29.97,SW,225,0.0,0.0,71,0.00,,,0.00,WUHU216WMR100,2016-07-23 10:08:00,
2016-07-23 05:13:00,74.8,65.0,29.97,SW,225,0.0,0.0,71,0.00,,,0.00,WUHU216WMR100,2016-07-23 10:13:00,
2016-07-23 05:18:00,74.8,65.4,30.00,SW,225,0.0,0.0,72,0.00,,,0.00,WUHU216WMR100,2016-07-23 10:18:00,
2016-07-23 05:23:00,75.0,65.9,30.00,SW,225,0.0,0.0,73,0.00,,,0.00,WUHU216WMR100,2016-07-23 10:23:00,
2016-07-23 05:28:00,75.0,66.3,30.00,SW,225,0.0,0.0,74,0.00,,,0.00,WUHU216WMR100,2016-07-23 10:28:00,
2016-07-23 05:33:00,75.0,66.3,29.97,SW,225,0.0,0.0,74,0.00,,,0.00,WUHU216WMR100,2016-07-23 10:33:00,
2016-07-23 05:38:00,75.2,66.5,29.97,SW,225,0.0,0.0,74,0.00,,,0.00,WUHU216WMR100,2016-07-23 10:38:00,
2016-07-23 05:43:00,75.2,66.5,29.97,SW,225,0.0,0.0,74,0.00,,,0.00,WUHU216WMR100,2016-07-23 10:43:00,
2016-07-23 05:48:00,75.2,66.5,29.97,SW,225,0.0,0.0,74,0.00,,,0.00,WUHU216WMR100,2016-07-23 10:48:00,
2016-07-23 05:53:00,75.2,66.5,29.97,SW,225,0.0,0.0,74,0.00,,,0.00,WUHU216WMR100,2016-07-23 10:53:00,
2016-07-23 05:58:00,75.2,66.5,29.97,SW,225,0.0,0.0,74,0.00,,,0.00,WUHU216WMR100,2016-07-23 10:58:00,
2016-07-23 06:03:00,75.4,66.7,29.97,SW,225,0.0,0.0,74,0.00,,,0.00,WUHU216WMR100,2016-07-23 11:03:00,
2016-07-23 06:08:00,75.4,66.7,29.97,SW,225,0.0,0.0,74,0.00,,,0.00,WUHU216WMR100,2016-07-23 11:08:00,
2016-07-23 06:13:00,75.4,66.7,29.97,SW,225,0.0,0.0,74,0.00,,,0.00,WUHU216WMR100,2016-07-23 11:13:00,
2016-07-23 06:18:00,75.6,66.9,30.00,SW,225,0.0,0.0,74,0.00,,,0.00,WUHU216WMR100,2016-07-23 11:18:00,
2016-07-23 06:23:00,75.7,67.0,30.00,SW,225,0.0,0.0,74,0.00,,,0.00,WUHU216WMR100,2016-07-23 11:23:00,
2016-07-23 06:28:00,75.9,67.2,30.00,SW,225,0.0,0.0,74,0.00,,,0.00,WUHU216WMR100,2016-07-23 11:28:00,
2016-07-23 06:33:00,76.3,67.6,30.00,SW,225,0.0,0.0,74,0.00,,,0.00,WUHU216WMR100,2016-07-23 11:33:00,
2016-07-23 06:38:00,76.6,67.9,30.00,SW,225,0.0,0.0,74,0.00,,,0.00,WUHU216WMR100,2016-07-23 11:38:00,
2016-07-23 06:43:00,76.8,68.1,30.00,SW,225,0.0,0.0,74,0.00,,,0.00,WUHU216WMR100,2016-07-23 11:43:00,
2016-07-23 06:48:00,76.8,68.1,30.00,West,270,0.0,0.0,74,0.00,,,0.00,WUHU216WMR100,2016-07-23 11:48:00,
2016-07-23 06:53:00,77.2,68.1,30.00,West,270,0.0,0.0,73,0.00,,,0.00,WUHU216WMR100,2016-07-23 11:53:00,
2016-07-23 06:58:00,77.5,68.7,30.00,West,270,0.0,0.0,74,0.00,,,0.00,WUHU216WMR100,2016-07-23 11:58:00,
2016-07-23 07:03:00,77.7,68.9,30.00,West,270,0.0,0.0,74,0.00,,,0.00,WUHU216WMR100,2016-07-23 12:03:00,
2016-07-23 07:08:00,78.1,69.3,30.00,West,270,4.1,5.0,74,0.00,,,0.00,WUHU216WMR100,2016-07-23 12:08:00,
2016-07-23 07:13:00,78.8,69.6,30.00,West,262,4.6,5.0,73,0.00,,,0.00,WUHU216WMR100,2016-07-23 12:13:00,
2016-07-23 07:18:00,79.5,70.3,30.00,WSW,247,0.0,5.0,73,0.00,,,0.00,WUHU216WMR100,2016-07-23 12:18:00,
2016-07-23 07:23:00,81.1,71.8,30.00,WSW,247,0.0,3.7,73,0.00,,,0.00,WUHU216WMR100,2016-07-23 12:23:00,
2016-07-23 07:28:00,82.2,72.9,30.00,SW,225,4.1,4.1,73,0.00,,,0.00,WUHU216WMR100,2016-07-23 12:28:00,
2016-07-23 07:33:00,82.2,66.2,30.00,WSW,247,0.0,4.1,58,0.00,,,0.00,WUHU216WMR100,2016-07-23 12:33:00,
2016-07-23 07:38:00,82.0,62.8,30.00,SW,225,0.0,2.4,52,0.00,,,0.00,WUHU216WMR100,2016-07-23 12:38:00,
2016-07-23 07:43:00,82.0,62.2,30.00,West,270,0.0,2.0,51,0.00,,,0.00,WUHU216WMR100,2016-07-23 12:43:00,
2016-07-23 07:48:00,82.0,61.1,30.00,WSW,246,3.9,4.6,49,0.00,,,0.00,WUHU216WMR100,2016-07-23 12:48:00,
2016-07-23 07:53:00,82.9,61.9,30.00,WSW,247,2.6,4.6,49,0.00,,,0.00,WUHU216WMR100,2016-07-23 12:53:00,
2016-07-23 07:58:00,83.1,60.9,30.00,NNW,337,0.0,5.0,47,0.00,,,0.00,WUHU216WMR100,2016-07-23 12:58:00,
2016-07-23 08:03:00,83.1,59.6,30.00,West,270,0.0,5.0,45,0.00,,,0.00,WUHU216WMR100,2016-07-23 13:03:00,
2016-07-23 08:08:00,84.6,61.0,30.00,West,266,4.8,6.7,45,0.00,,,0.00,WUHU216WMR100,2016-07-23 13:08:00,
2016-07-23 08:13:00,85.1,60.1,30.00,SW,225,0.0,6.7,43,0.00,,,0.00,WUHU216WMR100,2016-07-23 13:13:00,
2016-07-23 08:18:00,85.1,59.4,30.00,WSW,247,0.0,4.6,42,0.00,,,0.00,WUHU216WMR100,2016-07-23 13:18:00,
2016-07-23 08:23:00,85.8,60.1,30.00,WSW,247,2.1,3.7,42,0.00,,,0.00,WUHU216WMR100,2016-07-23 13:23:00,
2016-07-23 08:28:00,86.5,60.0,30.00,West,261,2.0,4.6,41,0.00,,,0.00,WUHU216WMR100,2016-07-23 13:28:00,
2016-07-23 08:33:00,87.3,60.0,30.00,WNW,292,0.0,4.6,40,0.00,,,0.00,WUHU216WMR100,2016-07-23 13:33:00,
2016-07-23 08:38:00,87.6,58.8,30.00,WNW,292,0.0,0.0,38,0.00,,,0.00,WUHU216WMR100,2016-07-23 13:38:00,
2016-07-23 08:43:00,87.4,59.4,30.00,West,270,3.0,3.0,39,0.00,,,0.00,WUHU216WMR100,2016-07-23 13:43:00,
2016-07-23 08:48:00,87.3,57.8,30.00,WSW,247,3.0,3.7,37,0.00,,,0.00,WUHU216WMR100,2016-07-23 13:48:00,